Time;durP1;ratioP1;P1;durP2;ratioP2;P2;SDS_P1;SDS_P2;PMS_P1;PMS_P2;Temp;Humidity;BMP_temperature;BMP_pressure;BME280_temperature;BME280_humidity;BME280_pressure;Samples;Min_cycle;Max_cycle;Signal;HPM_P1;HPM_P2
2021/10/31 00:01:12;;;;;;;5.17;4.53;;;;;;;11.45;100.00;99546.09;5067727;28;20182;-72
2021/10/31 00:03:37;;;;;;;4.90;4.50;;;;;;;11.49;100.00;99557.94;5065875;28;20186;-72
2021/10/31 00:06:03;;;;;;;4.70;4.00;;;;;;;11.52;100.00;99563.53;5071288;28;20185;-72
2021/10/31 00:08:28;;;;;;;5.27;3.43;;;;;;;11.46;100.00;99561.38;5071201;28;20174;-72
2021/10/31 00:10:55;;;;;;;4.67;4.23;;;;;;;11.58;100.00;99555.94;5071476;28;20216;-72
2021/10/31 00:13:20;;;;;;;2.60;2.40;;;;;;;11.69;100.00;99553.53;5071566;28;20182;-72
2021/10/31 00:15:46;;;;;;;4.00;3.60;;;;;;;11.75;100.00;99554.91;5071331;28;20228;-72
2021/10/31 00:18:11;;;;;;;3.30;2.53;;;;;;;11.73;100.00;99554.47;5071700;28;20627;-71
2021/10/31 00:20:37;;;;;;;4.90;3.30;;;;;;;11.74;100.00;99570.53;5071576;28;20174;-71
2021/10/31 00:23:02;;;;;;;4.97;4.00;;;;;;;11.65;100.00;99561.63;5071108;28;20512;-72
2021/10/31 00:25:27;;;;;;;4.07;3.60;;;;;;;11.69;100.00;99569.94;5071344;28;20185;-72
2021/10/31 00:27:53;;;;;;;4.47;4.07;;;;;;;11.61;100.00;99563.44;5071835;28;20232;-72
2021/10/31 00:30:18;;;;;;;4.43;4.03;;;;;;;11.61;100.00;99572.44;5070923;28;20671;-71
2021/10/31 00:32:44;;;;;;;3.73;3.43;;;;;;;11.68;100.00;99571.09;5071186;28;20212;-72
2021/10/31 00:35:09;;;;;;;5.17;4.50;;;;;;;11.53;100.00;99576.06;5071172;28;20170;-72
2021/10/31 00:37:34;;;;;;;4.87;4.27;;;;;;;11.57;100.00;99578.91;5071269;28;20185;-72
2021/10/31 00:40:00;;;;;;;4.73;4.27;;;;;;;11.56;100.00;99591.00;5071188;28;20177;-72
2021/10/31 00:42:25;;;;;;;4.53;3.77;;;;;;;11.51;100.00;99583.81;5071161;28;20261;-72
2021/10/31 00:44:50;;;;;;;4.70;4.13;;;;;;;11.61;100.00;99596.28;5070996;28;20563;-72
2021/10/31 00:47:16;;;;;;;4.70;4.00;;;;;;;11.63;100.00;99596.72;5071123;28;20190;-71
2021/10/31 00:49:41;;;;;;;4.50;4.10;;;;;;;11.77;100.00;99585.47;5071136;28;20241;-72
2021/10/31 00:52:10;;;;;;;5.00;4.60;;;;;;;11.87;100.00;99590.53;5071112;28;20182;-72
2021/10/31 00:54:35;;;;;;;4.37;3.97;;;;;;;11.80;100.00;99593.03;5070633;28;20269;-72
2021/10/31 00:57:01;;;;;;;4.47;4.07;;;;;;;11.74;100.00;99586.94;5070786;28;20261;-72
2021/10/31 00:59:26;;;;;;;5.00;3.80;;;;;;;11.74;100.00;99588.91;5070877;28;20181;-72
2021/10/31 01:01:52;;;;;;;4.67;4.27;;;;;;;11.79;100.00;99594.16;5071180;28;20232;-72
2021/10/31 01:04:23;;;;;;;4.20;3.77;;;;;;;11.85;100.00;99598.25;5070844;28;20193;-71
2021/10/31 01:06:58;;;;;;;5.23;4.77;;;;;;;11.81;100.00;99600.88;5069548;28;20206;-71
2021/10/31 01:09:44;;;;;;;5.23;4.73;;;;;;;11.80;100.00;99604.78;5070728;28;20201;-72
2021/10/31 01:12:59;;;;;;;3.37;3.07;;;;;;;11.83;100.00;99615.03;5070901;28;20162;-72
2021/10/31 01:15:36;;;;;;;7.57;3.70;;;;;;;11.85;100.00;99606.47;5066218;28;20186;-71
2021/10/31 01:18:37;;;;;;;4.60;3.47;;;;;;;11.85;100.00;99612.75;5070902;28;20177;-72
2021/10/31 01:21:33;;;;;;;3.33;3.13;;;;;;;11.86;100.00;99608.06;5059648;28;20195;-71
2021/10/31 01:24:04;;;;;;;4.73;4.33;;;;;;;11.87;100.00;99609.69;5070783;28;20167;-71
2021/10/31 01:26:54;;;;;;;4.03;3.10;;;;;;;11.88;100.00;99603.09;5070860;28;20206;-72
2021/10/31 01:29:32;;;;;;;1.63;1.53;;;;;;;11.89;100.00;99597.25;5070657;28;20630;-72
2021/10/31 01:32:23;;;;;;;4.33;3.93;;;;;;;11.92;100.00;99593.03;5070829;28;20162;-71
2021/10/31 01:35:00;;;;;;;3.57;3.17;;;;;;;11.94;100.00;99617.34;5071294;28;20192;-72
2021/10/31 01:37:38;;;;;;;3.37;3.03;;;;;;;11.98;100.00;99612.75;5073226;28;20621;-72
2021/10/31 01:40:05;;;;;;;4.23;3.93;;;;;;;12.00;100.00;99613.22;5074465;28;20182;-71
2021/10/31 01:42:46;;;;;;;4.93;4.53;;;;;;;12.03;100.00;99613.34;5072951;28;20174;-72
2021/10/31 01:45:22;;;;;;;4.70;4.00;;;;;;;12.07;100.00;99616.22;5074165;28;20170;-72
2021/10/31 01:48:18;;;;;;;3.93;3.60;;;;;;;12.09;100.00;99611.19;5074143;28;20162;-72
2021/10/31 01:50:47;;;;;;;4.43;4.03;;;;;;;12.10;100.00;99608.09;5074263;28;20202;-72
2021/10/31 01:53:22;;;;;;;4.40;4.00;;;;;;;12.14;100.00;99614.47;5074171;28;20218;-72
2021/10/31 01:55:57;;;;;;;3.30;3.00;;;;;;;12.16;100.00;99625.13;5074562;28;20272;-72
2021/10/31 01:58:24;;;;;;;4.03;3.13;;;;;;;12.16;100.00;99627.84;5074468;28;20177;-72
2021/10/31 02:00:52;;;;;;;4.33;3.93;;;;;;;12.16;100.00;99631.41;5072727;28;20182;-72
2021/10/31 02:03:20;;;;;;;4.73;4.07;;;;;;;12.20;100.00;99636.97;5073973;28;20253;-72
2021/10/31 02:05:49;;;;;;;4.33;3.83;;;;;;;12.21;100.00;99628.41;5073718;28;20641;-72
2021/10/31 02:08:15;;;;;;;3.73;3.43;;;;;;;12.21;100.00;99635.84;5073512;28;20182;-72
2021/10/31 02:10:43;;;;;;;4.20;3.80;;;;;;;12.18;100.00;99614.63;5073507;28;20293;-72
2021/10/31 02:13:11;;;;;;;3.27;2.97;;;;;;;12.18;100.00;99642.00;5074064;28;20175;-72
2021/10/31 02:15:37;;;;;;;6.07;3.67;;;;;;;12.17;100.00;99629.44;5073724;28;20228;-72
2021/10/31 02:18:04;;;;;;;3.53;3.23;;;;;;;12.14;100.00;99619.97;5073746;28;20186;-72
2021/10/31 02:20:30;;;;;;;2.40;2.20;;;;;;;12.11;100.00;99630.81;5073759;28;20177;-72
2021/10/31 02:23:03;;;;;;;4.37;3.90;;;;;;;12.06;100.00;99626.34;5073728;28;20296;-72
2021/10/31 02:25:29;;;;;;;5.30;4.47;;;;;;;12.05;100.00;99630.25;5073553;28;20151;-72
2021/10/31 02:27:55;;;;;;;4.63;3.87;;;;;;;12.04;100.00;99622.38;5073804;28;20198;-71
2021/10/31 02:30:21;;;;;;;4.47;4.07;;;;;;;11.99;100.00;99619.84;5072109;28;20684;-72
2021/10/31 02:32:47;;;;;;;5.30;4.33;;;;;;;11.94;100.00;99628.28;5072001;28;20175;-72
2021/10/31 02:35:13;;;;;;;4.37;3.97;;;;;;;11.95;100.00;99616.19;5072980;28;20198;-72
2021/10/31 02:37:40;;;;;;;2.00;1.83;;;;;;;11.95;100.00;99635.34;5073267;28;20645;-72
2021/10/31 02:40:09;;;;;;;4.33;3.80;;;;;;;11.96;100.00;99632.28;5073348;28;20175;-71
2021/10/31 02:42:34;;;;;;;5.13;4.73;;;;;;;11.93;100.00;99638.44;5073086;28;20584;-72
2021/10/31 02:45:00;;;;;;;3.67;3.10;;;;;;;11.95;100.00;99633.41;5072962;28;20170;-71
2021/10/31 02:47:32;;;;;;;3.37;2.93;;;;;;;11.97;100.00;99633.06;5072310;28;20533;-72
2021/10/31 02:49:58;;;;;;;4.77;4.37;;;;;;;11.92;100.00;99639.56;5072964;28;20194;-71
2021/10/31 02:52:31;;;;;;;4.53;4.00;;;;;;;11.96;100.00;99645.97;5071824;28;20185;-72
2021/10/31 02:55:09;;;;;;;4.53;4.13;;;;;;;11.89;100.00;99643.00;5073039;28;20186;-71
2021/10/31 02:58:03;;;;;;;4.33;3.93;;;;;;;11.80;100.00;99639.56;5072978;28;20641;-72
2021/10/31 03:00:30;;;;;;;5.13;4.73;;;;;;;11.79;100.00;99644.22;5072601;28;20688;-72
2021/10/31 03:02:57;;;;;;;4.13;3.73;;;;;;;11.90;100.00;99656.34;5072847;28;20171;-72
2021/10/31 03:05:23;;;;;;;5.37;4.93;;;;;;;11.73;100.00;99644.75;5072700;28;20835;-72
2021/10/31 03:07:49;;;;;;;8.63;4.40;;;;;;;11.83;100.00;99652.53;5072113;28;20178;-72
2021/10/31 03:10:18;;;;;;;4.97;4.47;;;;;;;11.90;100.00;99650.06;5072090;28;20205;-72
2021/10/31 03:12:47;;;;;;;4.70;4.30;;;;;;;11.90;100.00;99653.59;5072511;28;20194;-72
2021/10/31 03:15:12;;;;;;;5.17;4.67;;;;;;;11.88;100.00;99646.88;5072187;28;20177;-72
2021/10/31 03:17:38;;;;;;;5.33;4.83;;;;;;;11.84;100.00;99652.19;5071972;28;20206;-72
2021/10/31 03:20:04;;;;;;;4.93;4.53;;;;;;;11.87;100.00;99667.97;5072054;28;20211;-72
2021/10/31 03:22:31;;;;;;;5.30;4.80;;;;;;;11.86;100.00;99671.84;5071823;28;20171;-72
2021/10/31 03:24:56;;;;;;;5.00;4.50;;;;;;;11.82;100.00;99670.91;5071489;28;20258;-72
2021/10/31 03:27:22;;;;;;;6.33;5.80;;;;;;;11.77;100.00;99667.56;5071820;28;20261;-72
2021/10/31 03:29:47;;;;;;;5.80;5.00;;;;;;;11.85;100.00;99670.22;5071953;28;20285;-72
2021/10/31 03:32:13;;;;;;;5.73;4.53;;;;;;;11.84;100.00;99676.03;5071724;28;20591;-72
2021/10/31 03:34:38;;;;;;;6.90;4.37;;;;;;;11.84;100.00;99678.78;5071478;28;20167;-72
2021/10/31 03:37:04;;;;;;;5.20;4.80;;;;;;;11.77;100.00;99678.50;5071723;28;20182;-72
2021/10/31 03:39:29;;;;;;;5.17;4.30;;;;;;;11.79;100.00;99668.84;5071618;28;20626;-72
2021/10/31 03:41:54;;;;;;;3.93;3.63;;;;;;;11.70;100.00;99673.56;5071553;28;20167;-72
2021/10/31 03:44:21;;;;;;;4.37;3.80;;;;;;;11.79;100.00;99671.59;5070190;28;20218;-72
2021/10/31 03:46:47;;;;;;;7.47;4.43;;;;;;;11.81;100.00;99684.94;5071357;28;20177;-72
2021/10/31 03:49:14;;;;;;;5.47;4.97;;;;;;;11.79;100.00;99688.00;5071207;28;20174;-72
2021/10/31 03:51:40;;;;;;;5.83;5.33;;;;;;;11.79;100.00;99693.47;5071497;28;20656;-72
2021/10/31 03:54:05;;;;;;;5.80;5.30;;;;;;;11.78;100.00;99702.81;5070338;28;20194;-71
2021/10/31 03:56:30;;;;;;;6.50;5.90;;;;;;;11.77;100.00;99700.41;5068923;28;20198;-72
2021/10/31 03:58:56;;;;;;;5.67;5.07;;;;;;;11.74;100.00;99701.09;5071367;28;20583;-72
2021/10/31 04:01:21;;;;;;;6.40;5.80;;;;;;;11.70;100.00;99664.56;5071823;28;20228;-72
2021/10/31 04:03:46;;;;;;;6.70;6.10;;;;;;;11.66;100.00;99696.50;5071430;28;20192;-72
2021/10/31 04:06:14;;;;;;;5.83;5.33;;;;;;;11.65;100.00;99705.84;5071501;28;20187;-71
2021/10/31 04:08:40;;;;;;;6.17;5.67;;;;;;;11.63;100.00;99697.97;5071620;28;20167;-71
2021/10/31 04:11:07;;;;;;;7.17;5.63;;;;;;;11.58;100.00;99698.19;5071441;28;20205;-72
2021/10/31 04:13:33;;;;;;;6.17;5.67;;;;;;;11.55;100.00;99704.31;5071192;28;20525;-72
2021/10/31 04:15:58;;;;;;;8.13;6.23;;;;;;;11.44;100.00;99703.94;5071223;28;20175;-72
2021/10/31 04:18:23;;;;;;;6.20;5.60;;;;;;;11.36;100.00;99698.53;5071525;28;20190;-71
2021/10/31 04:20:49;;;;;;;7.03;6.33;;;;;;;11.42;100.00;99708.13;5071355;28;20177;-71
2021/10/31 04:23:15;;;;;;;5.10;4.70;;;;;;;11.47;100.00;99718.88;5071383;28;20694;-73
2021/10/31 04:25:40;;;;;;;7.47;6.00;;;;;;;11.42;100.00;99716.31;5071094;28;20182;-72
2021/10/31 04:28:06;;;;;;;6.47;5.87;;;;;;;11.48;100.00;99717.75;5071301;28;20634;-71
2021/10/31 04:30:32;;;;;;;6.83;5.03;;;;;;;11.47;100.00;99716.13;5071246;28;20213;-71
2021/10/31 04:32:57;;;;;;;5.70;5.20;;;;;;;11.50;100.00;99727.19;5071250;28;20201;-71
2021/10/31 04:35:22;;;;;;;6.80;5.63;;;;;;;11.44;100.00;99727.75;5071132;28;20528;-74
2021/10/31 04:37:48;;;;;;;5.10;4.70;;;;;;;11.42;100.00;99725.31;5071237;28;20181;-72
2021/10/31 04:40:16;;;;;;;6.67;6.07;;;;;;;11.41;100.00;99709.25;5070948;28;20808;-72
2021/10/31 04:42:41;;;;;;;6.60;6.07;;;;;;;11.33;100.00;99710.94;5071179;28;20250;-71
2021/10/31 04:45:07;;;;;;;6.90;6.20;;;;;;;11.23;100.00;99711.34;5071020;28;20265;-71
2021/10/31 04:47:33;;;;;;;6.60;6.00;;;;;;;11.24;100.00;99712.94;5071161;28;20170;-71
2021/10/31 04:49:59;;;;;;;7.10;6.50;;;;;;;11.17;100.00;99704.47;5071020;28;20197;-71
2021/10/31 04:52:24;;;;;;;6.40;5.80;;;;;;;11.19;100.00;99708.47;5071031;28;20186;-71
2021/10/31 04:54:50;;;;;;;6.07;5.47;;;;;;;11.24;100.00;99707.47;5071109;28;20170;-71
2021/10/31 04:57:15;;;;;;;6.37;5.77;;;;;;;11.39;100.00;99717.00;5069673;28;20175;-71
2021/10/31 04:59:40;;;;;;;6.03;5.43;;;;;;;11.35;100.00;99705.94;5070995;28;20657;-71
2021/10/31 05:02:06;;;;;;;5.93;5.43;;;;;;;11.29;100.00;99729.97;5070847;28;20182;-71
2021/10/31 05:04:31;;;;;;;5.90;5.40;;;;;;;11.26;100.00;99727.88;5070672;28;20167;-72
2021/10/31 05:06:57;;;;;;;6.30;5.63;;;;;;;11.21;100.00;99717.13;5070689;28;20216;-71
2021/10/31 05:09:22;;;;;;;5.83;5.33;;;;;;;11.09;100.00;99706.13;5070447;28;20232;-71
2021/10/31 05:11:47;;;;;;;6.50;5.90;;;;;;;10.95;100.00;99713.78;5074781;28;20649;-71
2021/10/31 05:14:13;;;;;;;6.27;5.67;;;;;;;11.03;100.00;99704.75;5074691;28;20556;-72
2021/10/31 05:16:38;;;;;;;6.20;5.60;;;;;;;11.01;100.00;99704.28;5074662;28;20170;-71
2021/10/31 05:19:05;;;;;;;5.47;4.97;;;;;;;10.93;100.00;99708.66;5074645;28;20171;-71
2021/10/31 05:21:31;;;;;;;5.30;4.83;;;;;;;10.84;100.00;99701.63;5074599;28;20178;-71
2021/10/31 05:23:56;;;;;;;5.53;5.03;;;;;;;10.68;100.00;99701.41;5074340;28;20257;-71
2021/10/31 05:26:24;;;;;;;5.03;4.53;;;;;;;10.62;100.00;99683.63;5073059;28;20261;-71
2021/10/31 05:28:49;;;;;;;6.10;5.47;;;;;;;10.51;100.00;99671.47;5074248;28;20175;-71
2021/10/31 05:31:15;;;;;;;5.53;5.10;;;;;;;10.39;100.00;99680.34;5072838;28;20577;-71
2021/10/31 05:33:40;;;;;;;6.57;5.90;;;;;;;10.58;100.00;99688.16;5072799;28;20198;-71
2021/10/31 05:36:06;;;;;;;6.00;5.40;;;;;;;10.62;100.00;99680.88;5074290;28;20664;-71
2021/10/31 05:38:31;;;;;;;5.60;5.10;;;;;;;10.53;100.00;99647.34;5074069;28;20225;-71
2021/10/31 05:40:57;;;;;;;6.40;5.90;;;;;;;10.46;100.00;99707.16;5073916;28;20174;-71
2021/10/31 05:43:22;;;;;;;6.47;5.77;;;;;;;10.40;100.00;99643.72;5074297;28;20197;-73
2021/10/31 05:45:47;;;;;;;6.33;5.40;;;;;;;10.39;100.00;99650.31;5073767;28;20541;-71
2021/10/31 05:48:13;;;;;;;5.93;5.43;;;;;;;10.40;100.00;99663.63;5073877;28;20206;-71
2021/10/31 05:50:40;;;;;;;9.50;8.50;;;;;;;10.38;100.00;99646.00;5072387;28;20198;-72
2021/10/31 05:53:05;;;;;;;7.63;6.83;;;;;;;10.45;100.00;99675.53;5074184;28;20170;-72
2021/10/31 05:55:30;;;;;;;9.03;8.00;;;;;;;10.47;100.00;99665.88;5074377;28;20171;-72
2021/10/31 05:57:56;;;;;;;9.37;8.47;;;;;;;10.55;100.00;99670.47;5075891;28;20608;-71
2021/10/31 06:00:21;;;;;;;8.53;7.80;;;;;;;10.55;100.00;99735.22;5073731;28;20431;-72
2021/10/31 06:02:47;;;;;;;11.97;10.77;;;;;;;10.46;100.00;99680.66;5073652;28;20178;-72
2021/10/31 06:05:14;;;;;;;9.63;8.63;;;;;;;10.44;100.00;99663.81;5073439;28;20170;-71
2021/10/31 06:07:41;;;;;;;10.50;9.60;;;;;;;10.41;100.00;99668.00;5073286;28;20191;-71
2021/10/31 06:10:07;;;;;;;10.97;10.03;;;;;;;10.46;100.00;99656.06;5073365;28;20256;-72
2021/10/31 06:12:33;;;;;;;10.30;9.40;;;;;;;10.57;100.00;99670.97;5073426;28;20183;-71
2021/10/31 06:14:58;;;;;;;11.33;10.30;;;;;;;10.67;100.00;99647.91;5071931;28;20240;-72
2021/10/31 06:17:24;;;;;;;9.60;8.73;;;;;;;10.63;100.00;99658.69;5073272;28;20186;-72
2021/10/31 06:19:49;;;;;;;9.97;8.70;;;;;;;10.50;100.00;99700.72;5073218;28;20634;-72
2021/10/31 06:22:15;;;;;;;11.10;9.97;;;;;;;10.56;100.00;99652.16;5070483;28;20641;-72
2021/10/31 06:24:41;;;;;;;10.53;9.07;;;;;;;10.62;100.00;99637.97;5072905;28;20262;-72
2021/10/31 06:27:06;;;;;;;10.97;9.83;;;;;;;10.68;100.00;99653.03;5071827;28;20540;-72
2021/10/31 06:29:32;;;;;;;10.57;9.57;;;;;;;10.75;100.00;99733.69;5072888;28;20177;-72
2021/10/31 06:31:57;;;;;;;12.10;10.77;;;;;;;10.60;100.00;99715.94;5073018;28;20271;-72
2021/10/31 06:34:23;;;;;;;11.27;9.20;;;;;;;10.51;100.00;99729.63;5073421;28;20179;-72
2021/10/31 06:36:48;;;;;;;9.97;9.00;;;;;;;10.67;100.00;99697.88;5072910;28;20175;-72
2021/10/31 06:39:14;;;;;;;9.60;8.37;;;;;;;10.70;100.00;99693.69;5072970;28;20178;-71
2021/10/31 06:41:40;;;;;;;9.33;8.43;;;;;;;10.67;100.00;99694.34;5072923;28;20174;-72
2021/10/31 06:44:05;;;;;;;10.17;9.17;;;;;;;10.66;100.00;99692.75;5072688;28;20339;-74
2021/10/31 06:46:32;;;;;;;10.57;9.67;;;;;;;10.73;100.00;99701.25;5072832;28;20175;-72
2021/10/31 06:48:57;;;;;;;10.23;9.23;;;;;;;10.78;100.00;99746.69;5072602;28;20477;-71
2021/10/31 06:51:22;;;;;;;9.33;8.53;;;;;;;10.68;100.00;99694.00;5072820;28;20604;-71
2021/10/31 06:53:49;;;;;;;10.03;9.13;;;;;;;10.65;100.00;99689.22;5072468;28;20187;-71
2021/10/31 06:56:15;;;;;;;10.50;9.50;;;;;;;10.75;100.00;99681.78;5072587;28;20178;-71
2021/10/31 06:58:41;;;;;;;12.43;9.60;;;;;;;10.69;100.00;99687.41;5072556;28;20178;-71
2021/10/31 07:01:07;;;;;;;9.77;8.87;;;;;;;10.74;100.00;99680.97;5072422;28;20260;-73
2021/10/31 07:03:32;;;;;;;9.83;8.93;;;;;;;10.90;100.00;99725.72;5072319;28;20228;-73
2021/10/31 07:05:59;;;;;;;10.73;9.20;;;;;;;11.04;100.00;99728.22;5072112;28;20175;-73
2021/10/31 07:08:24;;;;;;;13.37;9.67;;;;;;;10.91;100.00;99671.88;5072212;28;20209;-72
2021/10/31 07:10:50;;;;;;;11.00;9.40;;;;;;;10.95;100.00;99724.72;5072136;28;20685;-73
2021/10/31 07:13:15;;;;;;;10.40;9.40;;;;;;;11.05;100.00;99663.41;5072494;28;20174;-73
2021/10/31 07:15:40;;;;;;;11.17;10.17;;;;;;;11.11;100.00;99659.31;5071948;28;20528;-73
2021/10/31 07:18:06;;;;;;;10.80;9.77;;;;;;;11.20;100.00;99660.84;5072103;28;20186;-73
2021/10/31 07:20:32;;;;;;;11.10;9.37;;;;;;;11.21;100.00;99733.56;5072006;28;20174;-73
2021/10/31 07:22:58;;;;;;;11.03;9.40;;;;;;;11.17;100.00;99675.22;5072103;28;20657;-73
2021/10/31 07:25:24;;;;;;;9.27;8.23;;;;;;;11.13;100.00;99731.66;5071867;28;20202;-73
2021/10/31 07:27:51;;;;;;;10.10;9.20;;;;;;;11.15;100.00;99691.16;5071930;28;20168;-73
2021/10/31 07:30:17;;;;;;;10.20;9.20;;;;;;;11.17;100.00;99679.88;5071798;28;20199;-73
2021/10/31 07:32:43;;;;;;;9.77;8.87;;;;;;;11.33;100.00;99673.47;5071462;28;20171;-73
2021/10/31 07:35:10;;;;;;;10.13;9.23;;;;;;;11.19;100.00;99730.34;5071597;28;20633;-73
2021/10/31 07:37:36;;;;;;;10.23;9.33;;;;;;;11.19;100.00;99681.13;5071769;28;20170;-73
2021/10/31 07:40:05;;;;;;;9.80;8.80;;;;;;;11.21;100.00;99684.34;5071740;28;20257;-74
2021/10/31 07:42:30;;;;;;;9.97;8.70;;;;;;;11.27;100.00;99684.91;5071665;28;20174;-73
2021/10/31 07:44:57;;;;;;;9.77;8.87;;;;;;;11.30;100.00;99693.28;5070167;28;20176;-73
2021/10/31 07:47:23;;;;;;;10.23;9.03;;;;;;;11.38;100.00;99680.66;5071923;28;20174;-72
2021/10/31 07:49:50;;;;;;;10.37;9.40;;;;;;;11.44;100.00;99690.25;5071447;28;20191;-73
2021/10/31 07:52:17;;;;;;;10.90;9.03;;;;;;;11.51;100.00;99753.44;5071486;28;20170;-73
2021/10/31 07:54:42;;;;;;;10.07;9.07;;;;;;;11.52;100.00;99704.97;5070059;28;20170;-73
2021/10/31 07:57:07;;;;;;;9.77;8.87;;;;;;;11.49;100.00;99754.91;5071837;28;20228;-73
2021/10/31 07:59:33;;;;;;;10.73;9.63;;;;;;;11.48;100.00;99766.97;5071432;28;20190;-72
2021/10/31 08:01:58;;;;;;;13.37;10.23;;;;;;;11.49;100.00;99760.38;5071326;28;20171;-71
2021/10/31 08:04:24;;;;;;;11.10;10.07;;;;;;;11.44;100.00;99746.91;5071050;28;20216;-71
2021/10/31 08:06:50;;;;;;;12.33;11.10;;;;;;;11.38;100.00;99742.75;5071193;28;20178;-72
2021/10/31 08:09:15;;;;;;;11.47;10.47;;;;;;;11.34;100.00;99745.38;5070937;28;20167;-71
2021/10/31 08:11:44;;;;;;;12.53;11.27;;;;;;;11.45;100.00;99748.50;5071051;28;20622;-72
2021/10/31 08:14:10;;;;;;;11.80;10.80;;;;;;;11.48;100.00;99729.47;5071288;28;20295;-72
2021/10/31 08:16:37;;;;;;;10.87;9.60;;;;;;;11.62;100.00;99742.88;5071284;28;20198;-71
2021/10/31 08:19:04;;;;;;;11.73;10.53;;;;;;;11.65;100.00;99730.47;5070886;28;20166;-72
2021/10/31 08:21:29;;;;;;;12.07;10.80;;;;;;;11.70;100.00;99728.31;5070457;28;20170;-72
2021/10/31 08:23:55;;;;;;;11.77;10.57;;;;;;;11.84;100.00;99728.03;5070256;28;20644;-72
2021/10/31 08:26:20;;;;;;;10.73;9.73;;;;;;;11.93;100.00;99730.72;5070613;28;20170;-71
2021/10/31 08:28:45;;;;;;;10.57;9.57;;;;;;;11.98;100.00;99728.53;5070505;28;20252;-71
2021/10/31 08:31:11;;;;;;;11.27;10.27;;;;;;;11.99;100.00;99718.38;5070398;28;20206;-71
2021/10/31 08:33:43;;;;;;;10.90;9.40;;;;;;;12.05;100.00;99706.91;5070207;28;20175;-71
2021/10/31 08:36:09;;;;;;;11.20;10.20;;;;;;;12.14;100.00;99713.06;5070513;28;20672;-71
2021/10/31 08:38:35;;;;;;;9.23;8.43;;;;;;;12.28;100.00;99710.00;5070237;28;20185;-71
2021/10/31 08:41:01;;;;;;;8.63;7.77;;;;;;;12.48;100.00;99705.59;5070314;28;20182;-72
2021/10/31 08:43:27;;;;;;;9.70;8.80;;;;;;;12.69;100.00;99711.72;5070465;28;20258;-71
2021/10/31 08:45:52;;;;;;;7.57;6.73;;;;;;;12.85;100.00;99714.56;5069608;28;20257;-71
2021/10/31 08:48:19;;;;;;;7.43;6.73;;;;;;;12.98;100.00;99721.66;5066679;28;20179;-71
2021/10/31 08:50:46;;;;;;;5.63;5.13;;;;;;;13.09;100.00;99714.56;5069946;28;20214;-71
2021/10/31 08:53:11;;;;;;;6.13;5.63;;;;;;;13.22;100.00;99707.13;5070748;28;20182;-71
2021/10/31 08:55:40;;;;;;;6.33;5.70;;;;;;;13.37;100.00;99698.16;5070362;28;20610;-71
2021/10/31 08:58:10;;;;;;;5.87;5.27;;;;;;;13.48;100.00;99700.41;5070628;28;20171;-72
2021/10/31 09:00:37;;;;;;;4.67;4.37;;;;;;;13.65;100.00;99719.34;5069186;28;20177;-72
2021/10/31 09:03:05;;;;;;;3.83;3.53;;;;;;;13.69;100.00;99712.78;5070552;28;20634;-77
2021/10/31 09:05:30;;;;;;;3.57;3.27;;;;;;;13.77;100.00;99707.50;5070478;28;20218;-74
2021/10/31 09:07:56;;;;;;;3.07;2.83;;;;;;;13.86;100.00;99699.88;5070288;28;20706;-75
2021/10/31 09:10:21;;;;;;;2.00;1.90;;;;;;;13.95;100.00;99695.84;5070504;28;20246;-72
2021/10/31 09:12:47;;;;;;;2.63;2.43;;;;;;;14.00;100.00;99689.28;5069994;28;20220;-71
2021/10/31 09:15:12;;;;;;;3.33;3.03;;;;;;;14.02;100.00;99684.22;5069842;28;20177;-71
2021/10/31 09:17:37;;;;;;;2.50;2.30;;;;;;;14.13;100.00;99690.00;5069965;28;20183;-72
2021/10/31 09:20:04;;;;;;;2.63;2.10;;;;;;;14.17;100.00;99677.16;5070046;28;20179;-72
2021/10/31 09:22:31;;;;;;;3.43;3.20;;;;;;;14.20;100.00;99668.22;5069057;28;20206;-72
2021/10/31 09:24:56;;;;;;;3.27;3.00;;;;;;;14.14;100.00;99667.66;5070344;28;20183;-72
2021/10/31 09:27:22;;;;;;;2.80;2.60;;;;;;;14.22;100.00;99669.47;5070441;28;20224;-72
2021/10/31 09:29:47;;;;;;;2.80;2.60;;;;;;;14.24;99.44;99667.16;5070282;28;20669;-72
2021/10/31 09:32:13;;;;;;;6.03;3.30;;;;;;;14.29;99.22;99655.88;5070367;28;20183;-73
2021/10/31 09:34:38;;;;;;;2.90;2.47;;;;;;;14.37;98.57;99647.81;5069997;28;20179;-73
2021/10/31 09:37:04;;;;;;;2.40;2.20;;;;;;;14.51;98.30;99642.69;5070214;28;20182;-72
2021/10/31 09:39:30;;;;;;;2.67;2.33;;;;;;;14.61;97.77;99628.41;5070211;28;20171;-72
2021/10/31 09:41:56;;;;;;;2.87;2.67;;;;;;;14.62;98.54;99637.44;5070485;28;20179;-73
2021/10/31 09:44:54;;;;;;;3.57;3.27;;;;;;;14.66;98.64;99638.31;5070145;28;20170;-72
2021/10/31 09:47:13;;;;;;;2.60;2.13;;;;;;;14.75;98.35;99645.19;5068039;28;20183;-73
2021/10/31 09:49:38;;;;;;;3.07;2.77;;;;;;;14.71;99.18;99636.06;5068711;28;20179;-72
2021/10/31 09:52:04;;;;;;;3.40;3.10;;;;;;;14.56;99.54;99634.16;5070133;28;20178;-72
2021/10/31 09:54:31;;;;;;;3.50;3.20;;;;;;;14.60;99.36;99635.03;5070030;28;20175;-72
2021/10/31 09:56:57;;;;;;;3.47;3.00;;;;;;;14.65;98.51;99623.78;5072328;28;20207;-73
2021/10/31 09:59:25;;;;;;;3.27;2.80;;;;;;;14.67;98.93;99624.22;5073435;28;20218;-73
2021/10/31 10:02:14;;;;;;;2.77;2.57;;;;;;;14.79;98.86;99631.53;5073894;28;20220;-72
2021/10/31 10:04:47;;;;;;;3.40;3.10;;;;;;;14.70;98.85;99631.72;5072902;28;20650;-71
2021/10/31 10:07:14;;;;;;;2.73;2.50;;;;;;;14.71;99.29;99624.28;5073315;28;20182;-72
2021/10/31 10:09:50;;;;;;;2.67;2.47;;;;;;;14.69;100.00;99627.38;5073414;28;20188;-74
2021/10/31 10:12:17;;;;;;;2.80;2.60;;;;;;;14.73;99.82;99636.50;5073602;28;20554;-72
2021/10/31 10:14:55;;;;;;;2.73;2.53;;;;;;;14.61;99.89;99620.16;5073214;28;20167;-72
2021/10/31 10:17:20;;;;;;;2.83;2.63;;;;;;;14.62;100.00;99620.94;5073425;28;20524;-72
2021/10/31 10:19:50;;;;;;;2.67;2.47;;;;;;;14.67;100.00;99632.47;5072136;28;20171;-71
2021/10/31 10:22:18;;;;;;;2.20;2.10;;;;;;;14.71;100.00;99622.31;5073276;28;20221;-72
2021/10/31 10:25:03;;;;;;;2.30;2.07;;;;;;;14.84;99.47;99632.03;5073070;28;20174;-71
2021/10/31 10:27:34;;;;;;;2.57;2.37;;;;;;;14.96;98.64;99631.13;5071885;28;20562;-72
2021/10/31 10:30:11;;;;;;;2.40;1.87;;;;;;;15.08;96.70;99633.75;5072983;28;20194;-71
2021/10/31 10:32:48;;;;;;;2.30;2.20;;;;;;;14.95;97.60;99635.03;5072976;28;20642;-72
2021/10/31 10:35:17;;;;;;;4.17;2.00;;;;;;;15.07;97.54;99631.38;5073024;28;20622;-72
2021/10/31 10:37:42;;;;;;;1.97;1.87;;;;;;;15.19;93.80;99628.47;5072904;28;20174;-72
2021/10/31 10:40:14;;;;;;;1.60;1.50;;;;;;;15.27;93.39;99619.19;5073267;28;20178;-71
2021/10/31 10:42:45;;;;;;;1.60;1.50;;;;;;;15.30;92.94;99617.66;5072931;28;20155;-72
2021/10/31 10:45:14;;;;;;;1.90;1.80;;;;;;;15.31;93.27;99614.53;5071396;28;20198;-71
2021/10/31 10:48:14;;;;;;;1.60;1.50;;;;;;;15.40;91.77;99617.06;5072707;28;20177;-73
2021/10/31 10:50:42;;;;;;;1.70;1.60;;;;;;;15.42;91.83;99610.03;5058247;28;20293;-72
2021/10/31 10:53:19;;;;;;;1.53;1.43;;;;;;;15.55;92.70;99596.13;5072691;28;20484;-72
2021/10/31 10:55:45;;;;;;;1.60;1.50;;;;;;;15.70;92.66;99620.03;5072484;28;20715;-72
2021/10/31 10:58:10;;;;;;;1.30;1.20;;;;;;;15.82;90.75;99597.03;5072656;28;20171;-72
2021/10/31 11:00:47;;;;;;;1.37;1.27;;;;;;;15.86;89.14;99587.66;5072518;28;20169;-72
2021/10/31 11:03:18;;;;;;;1.70;1.60;;;;;;;15.86;89.17;99581.34;5071268;28;20174;-72
2021/10/31 11:05:45;;;;;;;1.50;1.40;;;;;;;15.88;88.94;99577.06;5072219;28;20171;-72
2021/10/31 11:08:15;;;;;;;1.00;1.00;;;;;;;15.94;89.15;99564.56;5071430;28;20186;-71
2021/10/31 11:11:04;;;;;;;1.00;1.00;;;;;;;15.98;88.53;99550.84;5070912;28;20255;-71
2021/10/31 11:13:30;;;;;;;4.13;1.50;;;;;;;15.91;88.63;99553.47;5072403;28;20163;-71
2021/10/31 11:15:59;;;;;;;1.40;1.23;;;;;;;15.99;88.92;99546.94;5072054;28;20173;-71
2021/10/31 11:18:25;;;;;;;1.50;1.40;;;;;;;16.02;88.38;99541.47;5072213;28;20182;-71
2021/10/31 11:20:50;;;;;;;1.53;1.33;;;;;;;16.00;89.35;99538.28;5072169;28;20182;-72
2021/10/31 11:23:21;;;;;;;2.37;2.17;;;;;;;15.99;90.28;99524.88;5072116;28;20170;-71
2021/10/31 11:25:46;;;;;;;2.57;2.00;;;;;;;16.00;91.33;99530.03;5071915;28;20605;-71
2021/10/31 11:28:15;;;;;;;3.17;2.83;;;;;;;16.00;91.29;99524.50;5071936;28;20261;-72